createdAt,value
2023-01-05T00:02:02.096Z,98587.84
2023-01-05T00:04:30.426Z,98582.44
2023-01-05T00:06:59.165Z,98573.91
2023-01-05T00:09:28.706Z,98588.22
2023-01-05T00:12:15.412Z,98584.81
2023-01-05T00:15:02.520Z,98586.41
2023-01-05T00:17:49.541Z,98580.28
2023-01-05T00:20:40.188Z,98578.06
2023-01-05T00:23:10.065Z,98547.16
2023-01-05T00:25:41.214Z,98585.03
2023-01-05T00:28:10.133Z,98550.41
2023-01-05T00:30:47.451Z,98535.25
2023-01-05T00:33:18.309Z,98557.81
2023-01-05T00:35:46.978Z,98549.88
2023-01-05T00:38:15.967Z,98511.84
2023-01-05T00:40:44.243Z,98558.50
2023-01-05T00:43:12.922Z,98554.03
2023-01-05T00:45:41.098Z,98536.09
2023-01-05T00:48:09.716Z,98521.97
2023-01-05T00:50:37.799Z,98525.94
2023-01-05T00:53:06.497Z,98507.50
2023-01-05T00:55:34.731Z,98548.00
2023-01-05T00:58:03.211Z,98549.66
2023-01-05T01:00:31.452Z,98544.91
2023-01-05T01:02:59.932Z,98536.16
2023-01-05T01:05:28.088Z,98536.81
2023-01-05T01:07:59.397Z,98507.88
2023-01-05T01:10:27.773Z,98527.63
2023-01-05T01:12:56.189Z,98510.09
2023-01-05T01:15:26.817Z,98512.97
2023-01-05T01:17:55.037Z,98520.47
2023-01-05T01:20:23.158Z,98508.22
2023-01-05T01:22:51.731Z,98456.41
2023-01-05T01:25:21.412Z,98470.72
2023-01-05T01:27:49.817Z,98442.22
2023-01-05T01:30:18.812Z,98401.84
2023-01-05T01:32:46.839Z,98481.84
2023-01-05T01:35:14.930Z,98448.28
2023-01-05T01:37:44.107Z,98462.09
2023-01-05T01:40:13.494Z,98466.13
2023-01-05T01:42:41.991Z,98476.13
2023-01-05T01:45:22.012Z,98430.97
2023-01-05T01:48:01.620Z,98454.53
2023-01-05T01:50:39.261Z,98452.28
2023-01-05T01:53:17.632Z,98434.75
2023-01-05T01:55:46.773Z,98440.78
2023-01-05T01:58:19.592Z,98439.66
2023-01-05T02:00:48.397Z,98434.88
2023-01-05T02:03:17.025Z,98430.56
2023-01-05T02:05:45.113Z,98425.03
2023-01-05T02:08:16.501Z,98421.38
2023-01-05T02:11:13.962Z,98382.78
2023-01-05T02:13:51.426Z,98408.78
2023-01-05T02:16:36.415Z,98403.47
2023-01-05T02:19:45.623Z,98390.38
2023-01-05T02:22:57.747Z,98390.06
2023-01-05T02:26:28.069Z,98377.72
2023-01-05T02:29:46.249Z,98376.53
2023-01-05T02:32:28.558Z,98372.22
2023-01-05T02:35:10.161Z,98373.03
2023-01-05T02:37:51.567Z,98325.06
2023-01-05T02:40:34.491Z,98325.91
2023-01-05T02:43:04.836Z,98371.91
2023-01-05T02:45:33.001Z,98340.03
2023-01-05T02:48:02.386Z,98368.41
2023-01-05T02:50:47.901Z,98363.13
2023-01-05T02:53:22.312Z,98358.81
2023-01-05T02:56:01.372Z,98321.97
2023-01-05T02:58:39.450Z,98356.19
2023-01-05T03:01:21.864Z,98320.66
2023-01-05T03:04:20.447Z,98343.66
2023-01-05T03:06:58.904Z,98345.97
2023-01-05T03:09:36.881Z,98306.81
2023-01-05T03:12:44.547Z,98322.03
2023-01-05T03:15:30.286Z,98323.19
2023-01-05T03:18:04.860Z,98304.47
2023-01-05T03:20:40.676Z,98296.38
2023-01-05T03:23:31.678Z,98298.56
2023-01-05T03:26:18.953Z,98281.81
2023-01-05T03:29:17.054Z,98286.78
2023-01-05T03:32:44.737Z,98294.75
2023-01-05T03:35:36.430Z,98278.66
2023-01-05T03:38:18.481Z,98295.09
2023-01-05T03:40:53.905Z,98274.06
2023-01-05T03:43:22.887Z,98255.97
2023-01-05T03:45:57.821Z,98272.94
2023-01-05T03:48:29.633Z,98234.78
2023-01-05T03:50:58.003Z,98284.53
2023-01-05T03:53:27.776Z,98255.66
2023-01-05T03:55:55.831Z,98278.06
2023-01-05T03:58:26.169Z,98257.97
2023-01-05T04:00:55.326Z,98273.94
2023-01-05T04:03:31.058Z,98262.84
2023-01-05T04:06:01.411Z,98177.88
2023-01-05T04:08:31.143Z,98245.19
2023-01-05T04:11:22.040Z,98257.84
2023-01-05T04:13:57.829Z,98227.81
2023-01-05T04:16:26.036Z,98276.38
2023-01-05T04:18:57.277Z,98260.47
2023-01-05T04:21:25.604Z,98127.19
2023-01-05T04:23:56.069Z,98259.34
2023-01-05T04:26:25.052Z,98259.00
2023-01-05T04:28:53.573Z,98216.88
2023-01-05T04:31:25.714Z,98261.75
2023-01-05T04:33:56.887Z,98269.59
2023-01-05T04:36:26.253Z,98259.28
2023-01-05T04:38:57.397Z,98264.94
2023-01-05T04:41:25.687Z,98253.19
2023-01-05T04:43:55.430Z,98251.31
2023-01-05T04:46:24.430Z,98255.94
2023-01-05T04:48:54.571Z,98252.91
2023-01-05T04:51:23.456Z,98251.91
2023-01-05T04:53:52.242Z,98240.47
2023-01-05T04:56:23.919Z,98238.50
2023-01-05T04:58:52.085Z,98239.34
2023-01-05T05:01:20.860Z,98237.53
2023-01-05T05:03:54.284Z,98210.50
2023-01-05T05:06:24.548Z,98215.53
2023-01-05T05:08:54.627Z,98202.44
2023-01-05T05:11:25.040Z,98194.34
2023-01-05T05:13:53.120Z,98203.28
2023-01-05T05:16:22.038Z,98201.50
2023-01-05T05:18:51.427Z,98192.72
2023-01-05T05:21:24.621Z,98194.34
2023-01-05T05:23:53.829Z,98198.84
2023-01-05T05:26:22.016Z,98195.72
2023-01-05T05:28:51.688Z,98210.63
2023-01-05T05:31:19.612Z,98187.59
2023-01-05T05:33:48.078Z,98123.81
2023-01-05T05:36:18.135Z,98086.84
2023-01-05T05:38:46.127Z,98200.22
2023-01-05T05:41:14.249Z,98190.59
2023-01-05T05:43:42.852Z,98188.94
2023-01-05T05:46:10.862Z,98182.19
2023-01-05T05:48:38.955Z,98174.22
2023-01-05T05:51:07.214Z,98179.53
2023-01-05T05:53:35.152Z,98142.88
2023-01-05T05:56:03.227Z,98176.22
2023-01-05T05:58:31.935Z,98177.84
2023-01-05T06:00:59.958Z,98182.00
2023-01-05T06:03:28.425Z,98180.66
2023-01-05T06:05:56.590Z,98168.75
2023-01-05T06:08:24.850Z,98160.97
2023-01-05T06:10:52.727Z,98174.88
2023-01-05T06:13:21.323Z,98180.66
2023-01-05T06:15:50.156Z,98150.19
2023-01-05T06:18:18.200Z,98175.56
2023-01-05T06:20:46.509Z,98154.69
2023-01-05T06:23:14.534Z,98167.63
2023-01-05T06:25:44.425Z,98170.59
2023-01-05T06:28:17.038Z,98170.28
2023-01-05T06:30:48.548Z,98142.72
2023-01-05T06:33:16.666Z,98173.72
2023-01-05T06:35:44.612Z,98169.41
2023-01-05T06:38:13.773Z,98183.47
2023-01-05T06:40:44.817Z,98172.41
2023-01-05T06:43:13.362Z,98174.22
2023-01-05T06:45:41.539Z,98154.22
2023-01-05T06:48:12.275Z,98142.97
2023-01-05T06:50:40.896Z,98209.72
2023-01-05T06:53:09.055Z,98185.19
2023-01-05T06:55:37.240Z,98164.31
2023-01-05T06:58:05.574Z,98213.69
2023-01-05T07:00:33.709Z,98218.00
2023-01-05T07:03:01.936Z,98218.69
2023-01-05T07:05:30.086Z,98227.78
2023-01-05T07:07:58.340Z,98222.63
2023-01-05T07:10:26.427Z,98223.31
2023-01-05T07:12:54.726Z,98209.72
2023-01-05T07:15:22.930Z,98151.56
2023-01-05T07:17:51.324Z,98210.91
2023-01-05T07:20:19.529Z,98212.38
2023-01-05T07:22:48.015Z,98210.56
2023-01-05T07:25:16.514Z,98229.44
2023-01-05T07:27:44.503Z,98210.72
2023-01-05T07:30:13.114Z,98223.97
2023-01-05T07:32:41.262Z,98217.38
2023-01-05T07:35:10.026Z,98195.13
2023-01-05T07:37:38.443Z,98180.41
2023-01-05T07:40:07.822Z,98198.28
2023-01-05T07:42:36.036Z,98198.94
2023-01-05T07:45:05.763Z,98224.94
2023-01-05T07:47:33.960Z,98202.56
2023-01-05T07:50:02.111Z,98212.38
2023-01-05T07:52:30.842Z,98212.88
2023-01-05T07:54:58.985Z,98203.75
2023-01-05T07:57:27.179Z,98177.22
2023-01-05T07:59:55.524Z,98167.78
2023-01-05T08:02:24.038Z,98215.53
2023-01-05T08:04:52.153Z,98172.41
2023-01-05T08:07:20.395Z,98215.69
2023-01-05T08:10:07.528Z,98226.28
2023-01-05T08:12:55.967Z,98169.94
2023-01-05T08:15:24.470Z,98222.97
2023-01-05T08:17:52.819Z,98183.53
2023-01-05T08:20:21.222Z,98221.66
2023-01-05T08:22:53.796Z,98176.88
2023-01-05T08:25:21.905Z,98228.59
2023-01-05T08:27:50.087Z,98189.16
2023-01-05T08:30:18.526Z,98223.47
2023-01-05T08:32:46.564Z,98228.13
2023-01-05T08:35:14.786Z,98204.28
2023-01-05T08:37:45.953Z,98231.97
2023-01-05T08:40:14.145Z,98235.28
2023-01-05T08:42:42.214Z,98237.44
2023-01-05T08:45:11.297Z,98230.31
2023-01-05T08:47:39.372Z,98189.56
2023-01-05T08:50:09.828Z,98229.66
2023-01-05T08:52:39.467Z,98228.97
2023-01-05T08:55:08.755Z,98197.47
2023-01-05T08:57:36.979Z,98237.78
2023-01-05T09:00:06.656Z,98209.88
2023-01-05T09:02:34.963Z,98187.19
2023-01-05T09:05:03.371Z,98218.66
2023-01-05T09:07:31.875Z,98219.50
2023-01-05T09:09:59.955Z,98217.38
2023-01-05T09:12:32.914Z,98215.91
2023-01-05T09:15:02.018Z,98212.72
2023-01-05T09:17:30.217Z,98216.34
2023-01-05T09:19:58.455Z,98214.50
2023-01-05T09:22:26.724Z,98170.94
2023-01-05T09:24:54.998Z,98212.72
2023-01-05T09:27:23.086Z,98182.84
2023-01-05T09:29:51.423Z,98223.31
2023-01-05T09:32:20.455Z,98223.31
2023-01-05T09:34:48.498Z,98162.97
2023-01-05T09:37:17.084Z,98180.19
2023-01-05T09:39:45.077Z,98222.81
2023-01-05T09:42:19.601Z,98194.63
2023-01-05T09:44:59.267Z,98233.41
2023-01-05T09:47:41.445Z,98181.53
2023-01-05T09:50:27.218Z,98094.72
2023-01-05T09:52:59.582Z,98190.00
2023-01-05T09:55:31.854Z,98226.78
2023-01-05T09:58:16.819Z,98226.63
2023-01-05T10:01:07.124Z,98220.16
2023-01-05T10:04:03.446Z,98212.34
2023-01-05T10:06:38.293Z,98196.41
2023-01-05T10:09:10.449Z,98172.88
2023-01-05T10:12:41.201Z,98234.03
2023-01-05T10:15:20.832Z,98243.16
2023-01-05T10:17:49.760Z,98242.69
2023-01-05T10:20:35.658Z,98237.56
2023-01-05T10:23:44.543Z,98203.91
2023-01-05T10:27:13.913Z,98238.94
2023-01-05T10:29:49.072Z,98212.72
2023-01-05T10:33:25.256Z,98226.00
2023-01-05T10:36:16.510Z,98228.16
2023-01-05T10:39:23.804Z,98231.97
2023-01-05T10:42:28.510Z,98224.97
2023-01-05T10:45:00.054Z,98223.50
2023-01-05T10:47:32.400Z,98210.44
2023-01-05T10:50:02.387Z,98215.72
2023-01-05T10:52:31.888Z,98225.00
2023-01-05T10:55:01.806Z,98172.63
2023-01-05T10:57:35.762Z,98215.88
2023-01-05T11:00:08.434Z,98214.41
2023-01-05T11:02:47.832Z,98204.09
2023-01-05T11:05:42.676Z,98205.41
2023-01-05T11:08:27.826Z,98200.09
2023-01-05T11:11:26.434Z,98203.41
2023-01-05T11:13:57.847Z,98149.44
2023-01-05T11:16:35.383Z,98189.00
2023-01-05T11:19:17.270Z,98142.75
2023-01-05T11:21:46.385Z,98199.06
2023-01-05T11:24:32.197Z,98188.75
2023-01-05T11:27:19.483Z,98147.66
2023-01-05T11:30:16.582Z,98204.13
2023-01-05T11:32:46.215Z,98205.06
2023-01-05T11:35:38.003Z,98194.38
2023-01-05T11:38:19.385Z,98188.09
2023-01-05T11:40:47.630Z,98181.31
2023-01-05T11:43:19.991Z,98179.06
2023-01-05T11:45:56.230Z,98161.19
2023-01-05T11:48:28.946Z,98175.84
2023-01-05T11:50:59.153Z,98189.41
2023-01-05T11:53:41.348Z,98186.88
2023-01-05T11:56:25.281Z,98189.22
2023-01-05T11:58:58.055Z,98190.56
2023-01-05T12:01:54.720Z,98189.25
2023-01-05T12:05:00.320Z,98186.09
2023-01-05T12:07:43.292Z,98190.94
2023-01-05T12:10:33.897Z,98179.56
2023-01-05T12:13:15.894Z,98159.69
2023-01-05T12:16:35.296Z,98200.59
2023-01-05T12:19:25.213Z,98199.97
2023-01-05T12:22:02.122Z,98200.59
2023-01-05T12:24:42.595Z,98152.88
2023-01-05T12:27:25.736Z,98189.66
2023-01-05T12:34:37.295Z,98193.09
2023-01-05T12:37:08.267Z,98188.88
2023-01-05T12:40:05.576Z,98178.25
2023-01-05T12:42:53.228Z,98173.97
2023-01-05T12:46:01.372Z,98181.63
2023-01-05T12:48:45.879Z,98148.34
2023-01-05T12:51:34.540Z,98176.63
2023-01-05T12:54:19.056Z,98171.66
2023-01-05T12:57:05.623Z,98158.06
2023-01-05T12:59:46.720Z,98164.19
2023-01-05T13:02:16.194Z,98168.56
2023-01-05T13:05:22.917Z,98153.53
2023-01-05T13:08:20.733Z,98178.38
2023-01-05T13:11:00.278Z,98129.22
2023-01-05T13:13:41.769Z,98132.03
2023-01-05T13:16:19.777Z,98188.69
2023-01-05T13:19:10.399Z,98180.88
2023-01-05T13:21:44.708Z,98185.59
2023-01-05T13:24:23.203Z,98174.63
2023-01-05T13:26:51.550Z,98171.66
2023-01-05T13:29:33.360Z,98164.38
2023-01-05T13:32:33.014Z,98176.19
2023-01-05T13:35:57.531Z,98160.66
2023-01-05T13:39:26.500Z,98162.56
2023-01-05T13:42:42.323Z,98166.91
2023-01-05T13:45:54.799Z,98186.31
2023-01-05T13:48:44.189Z,98187.47
2023-01-05T13:52:03.468Z,98163.00
2023-01-05T13:54:43.501Z,98209.84
2023-01-05T13:57:25.507Z,98217.59
2023-01-05T14:00:08.321Z,98194.00
2023-01-05T14:02:45.451Z,98239.53
2023-01-05T14:05:39.731Z,98189.72
2023-01-05T14:08:27.532Z,98222.84
2023-01-05T14:11:18.841Z,98241.38
2023-01-05T14:14:05.231Z,98249.22
2023-01-05T14:16:37.855Z,98262.59
2023-01-05T14:19:50.400Z,98260.38
2023-01-05T14:22:21.922Z,98260.00
2023-01-05T14:24:51.269Z,98248.53
2023-01-05T14:27:24.789Z,98264.47
2023-01-05T14:29:53.184Z,98223.28
2023-01-05T14:32:37.639Z,98161.88
2023-01-05T14:35:37.235Z,98283.81
2023-01-05T14:38:21.499Z,98283.81
2023-01-05T14:40:56.030Z,98284.47
2023-01-05T14:43:35.317Z,98269.09
2023-01-05T14:46:16.006Z,98228.66
2023-01-05T14:49:11.413Z,98230.53
2023-01-05T14:51:40.006Z,98289.16
2023-01-05T14:54:10.692Z,98294.00
2023-01-05T14:56:39.116Z,98276.81
2023-01-05T14:59:26.285Z,98271.22
2023-01-05T15:01:56.255Z,98268.88
2023-01-05T15:04:34.163Z,98264.69
2023-01-05T15:07:14.204Z,98295.19
2023-01-05T15:10:44.368Z,98292.75
2023-01-05T15:13:24.355Z,98295.72
2023-01-05T15:16:07.160Z,98293.38
2023-01-05T15:18:47.404Z,98313.88
2023-01-05T15:21:25.409Z,98305.34
2023-01-05T15:24:50.640Z,98314.22
2023-01-05T15:27:53.247Z,98316.66
2023-01-05T15:30:27.183Z,98301.69
2023-01-05T15:33:30.479Z,98321.47
2023-01-05T15:36:04.616Z,98321.25
2023-01-05T15:38:47.925Z,98304.81
2023-01-05T15:41:20.480Z,98330.63
2023-01-05T15:43:50.432Z,98318.22
2023-01-05T15:46:26.240Z,98343.31
2023-01-05T15:48:56.005Z,98330.16
2023-01-05T15:51:27.837Z,98284.75
2023-01-05T15:54:01.625Z,98332.50
2023-01-05T15:56:40.953Z,98302.97
2023-01-05T15:59:39.269Z,98325.84
2023-01-05T16:02:22.475Z,98328.94
2023-01-05T16:05:14.798Z,98304.59
2023-01-05T16:08:12.053Z,98343.28
2023-01-05T16:10:54.000Z,98255.84
2023-01-05T16:13:47.949Z,98323.63
2023-01-05T16:16:51.369Z,98320.63
2023-01-05T16:19:36.936Z,98354.00
2023-01-05T16:22:25.215Z,98357.56
2023-01-05T16:25:18.006Z,98357.56
2023-01-05T16:27:52.023Z,98353.81
2023-01-05T16:30:42.298Z,98315.88
2023-01-05T16:33:40.522Z,98357.94
2023-01-05T16:36:21.034Z,98350.31
2023-01-05T16:38:49.864Z,98355.22
2023-01-05T16:41:26.956Z,98353.13
2023-01-05T16:44:02.972Z,98326.75
2023-01-05T16:46:44.042Z,98334.59
2023-01-05T16:49:43.461Z,98352.34
2023-01-05T16:52:23.915Z,98359.81
2023-01-05T16:55:29.054Z,98363.75
2023-01-05T16:58:02.501Z,98365.56
2023-01-05T17:00:32.845Z,98372.81
2023-01-05T17:03:23.370Z,98373.81
2023-01-05T17:05:56.800Z,98330.69
2023-01-05T17:08:32.299Z,98377.94
2023-01-05T17:11:04.879Z,98328.72
2023-01-05T17:13:55.125Z,98326.50
2023-01-05T17:16:23.850Z,98327.59
2023-01-05T17:18:52.382Z,98376.22
2023-01-05T17:21:27.669Z,98359.81
2023-01-05T17:23:59.468Z,98376.22
2023-01-05T17:26:30.265Z,98366.19
2023-01-05T17:31:32.237Z,98380.38
2023-01-05T17:34:00.774Z,98379.69
2023-01-05T17:36:35.542Z,98321.84
2023-01-05T17:39:05.216Z,98377.91
2023-01-05T17:41:33.902Z,98379.41
2023-01-05T17:44:02.116Z,98357.66
2023-01-05T17:46:33.846Z,98360.44
2023-01-05T17:49:02.553Z,98325.81
2023-01-05T17:51:31.251Z,98333.28
2023-01-05T17:54:00.501Z,98327.47
2023-01-05T17:56:28.714Z,98376.00
2023-01-05T17:58:56.876Z,98370.31
2023-01-05T18:01:26.459Z,98376.59
2023-01-05T18:03:54.717Z,98384.66
2023-01-05T18:06:23.137Z,98359.91
2023-01-05T18:08:51.821Z,98367.06
2023-01-05T18:11:20.307Z,98370.63
2023-01-05T18:13:48.867Z,98379.13
2023-01-05T18:16:18.185Z,98349.31
2023-01-05T18:18:46.356Z,98347.78
2023-01-05T18:21:14.859Z,98381.47
2023-01-05T18:23:44.295Z,98396.50
2023-01-05T18:26:12.671Z,98375.53
2023-01-05T18:28:41.075Z,98402.75
2023-01-05T18:31:17.029Z,98345.16
2023-01-05T18:33:45.402Z,98386.50
2023-01-05T18:36:15.419Z,98406.53
2023-01-05T18:38:44.221Z,98410.59
2023-01-05T18:41:12.945Z,98393.38
2023-01-05T18:43:41.352Z,98410.63
2023-01-05T18:46:10.252Z,98420.06
2023-01-05T18:48:40.355Z,98414.75
2023-01-05T18:51:10.577Z,98440.75
2023-01-05T18:53:39.550Z,98434.22
2023-01-05T18:56:15.258Z,98427.00
2023-01-05T18:58:43.786Z,98404.03
2023-01-05T19:01:20.323Z,98405.56
2023-01-05T19:03:51.166Z,98432.38
2023-01-05T19:06:25.884Z,98469.47
2023-01-05T19:08:54.321Z,98479.91
2023-01-05T19:11:25.287Z,98493.97
2023-01-05T19:14:01.449Z,98501.75
2023-01-05T19:16:33.607Z,98507.88
2023-01-05T19:19:08.844Z,98495.53
2023-01-05T19:21:40.615Z,98473.16
2023-01-05T19:24:19.896Z,98536.25
2023-01-05T19:26:49.678Z,98530.53
2023-01-05T19:29:19.393Z,98547.31
2023-01-05T19:31:49.597Z,98544.69
2023-01-05T19:34:19.714Z,98533.44
2023-01-05T19:36:48.268Z,98551.47
2023-01-05T19:39:21.727Z,98559.13
2023-01-05T19:41:54.221Z,98528.81
2023-01-05T19:44:23.436Z,98541.19
2023-01-05T19:46:54.788Z,98575.59
2023-01-05T19:49:26.591Z,98512.63
2023-01-05T19:51:55.227Z,98571.69
2023-01-05T19:54:26.323Z,98599.63
2023-01-05T19:56:55.425Z,98605.13
2023-01-05T19:59:33.205Z,98615.69
2023-01-05T20:02:06.251Z,98615.69
2023-01-05T20:04:35.967Z,98632.19
2023-01-05T20:07:11.301Z,98646.50
2023-01-05T20:09:40.413Z,98639.41
2023-01-05T20:12:14.762Z,98630.25
2023-01-05T20:14:44.510Z,98650.81
2023-01-05T20:17:15.895Z,98662.91
2023-01-05T20:19:44.891Z,98652.72
2023-01-05T20:22:16.705Z,98658.84
2023-01-05T20:24:45.150Z,98665.41
2023-01-05T20:27:15.703Z,98675.09
2023-01-05T20:29:44.277Z,98613.38
2023-01-05T20:32:19.223Z,98693.28
2023-01-05T20:35:00.182Z,98689.69
2023-01-05T20:37:32.517Z,98700.13
2023-01-05T20:40:02.945Z,98694.53
2023-01-05T20:42:31.837Z,98650.28
2023-01-05T20:45:03.564Z,98659.59
2023-01-05T20:47:43.132Z,98706.75
2023-01-05T20:50:16.981Z,98719.78
2023-01-05T20:52:46.005Z,98662.13
2023-01-05T20:55:18.827Z,98740.00
2023-01-05T20:57:48.928Z,98739.44
2023-01-05T21:00:18.658Z,98704.91
2023-01-05T21:02:50.088Z,98728.72
2023-01-05T21:05:18.975Z,98750.13
2023-01-05T21:07:50.521Z,98709.88
2023-01-05T21:10:21.104Z,98735.28
2023-01-05T21:12:51.152Z,98734.63
2023-01-05T21:15:20.144Z,98711.19
2023-01-05T21:17:49.192Z,98757.50
2023-01-05T21:20:17.692Z,98754.19
2023-01-05T21:22:46.345Z,98755.44
2023-01-05T21:25:14.765Z,98766.97
2023-01-05T21:27:44.182Z,98761.38
2023-01-05T21:30:13.693Z,98782.47
2023-01-05T21:32:42.577Z,98750.56
2023-01-05T21:35:11.207Z,98787.66
2023-01-05T21:37:39.571Z,98794.38
2023-01-05T21:40:08.969Z,98778.00
2023-01-05T21:42:43.090Z,98765.78
2023-01-05T21:45:13.363Z,98809.66
2023-01-05T21:47:42.027Z,98789.22
2023-01-05T21:50:32.464Z,98826.09
2023-01-05T21:53:19.956Z,98787.41
2023-01-05T21:56:08.243Z,98826.00
2023-01-05T21:58:40.525Z,98817.78
2023-01-05T22:01:09.473Z,98843.25
2023-01-05T22:03:38.321Z,98785.66
2023-01-05T22:06:08.660Z,98849.59
2023-01-05T22:08:38.330Z,98841.22
2023-01-05T22:11:07.160Z,98843.88
2023-01-05T22:13:38.578Z,98867.69
2023-01-05T22:16:08.975Z,98866.63
2023-01-05T22:18:38.003Z,98873.81
2023-01-05T22:21:09.950Z,98880.72
2023-01-05T22:23:39.599Z,98875.97
2023-01-05T22:26:14.731Z,98840.44
2023-01-05T22:28:45.190Z,98883.53
2023-01-05T22:31:21.233Z,98894.06
2023-01-05T22:33:57.982Z,98896.31
2023-01-05T22:36:28.779Z,98924.31
2023-01-05T22:38:58.514Z,98862.81
2023-01-05T22:41:30.714Z,98928.50
2023-01-05T22:43:59.751Z,98929.56
2023-01-05T22:46:29.755Z,98909.44
2023-01-05T22:48:59.396Z,98908.91
2023-01-05T22:51:30.277Z,98908.09
2023-01-05T22:53:59.686Z,98907.22
2023-01-05T22:56:31.255Z,98927.13
2023-01-05T22:59:00.527Z,98980.69
2023-01-05T23:01:31.174Z,98989.06
2023-01-05T23:04:02.229Z,98955.34
2023-01-05T23:06:31.424Z,98951.34
2023-01-05T23:09:00.350Z,98946.94
2023-01-05T23:11:37.086Z,98962.84
2023-01-05T23:14:08.798Z,98954.09
2023-01-05T23:16:37.872Z,99012.06
2023-01-05T23:19:08.778Z,99006.09
2023-01-05T23:21:38.505Z,99021.50
2023-01-05T23:24:07.298Z,98962.09
2023-01-05T23:26:35.958Z,98989.75
2023-01-05T23:29:04.450Z,99028.88
2023-01-05T23:31:32.691Z,98983.38
2023-01-05T23:34:01.509Z,99038.25
2023-01-05T23:36:29.892Z,99042.66
2023-01-05T23:38:58.462Z,99058.78
2023-01-05T23:41:26.578Z,99057.81
2023-01-05T23:43:55.594Z,99074.44
2023-01-05T23:46:23.920Z,99053.63
2023-01-05T23:48:52.820Z,99089.25
2023-01-05T23:51:21.479Z,99098.22
2023-01-05T23:53:53.899Z,99045.09
2023-01-05T23:56:29.267Z,99084.56
2023-01-05T23:59:04.285Z,99049.97
